KEOK/EOK METAR and TAF weather

Enter ICAO airport designator
Station Type Date Time Source
KEOK METAR 2019/02/21 00:15 UTC NOAA

KEOK 210015Z AUTO 25014KT 10SM OVC035 01/M02 A2983 RMK AO2


Station Type Date Time Source
KEOK Decoded METAR 2019/02/21 00:15 UTC NOAA

Keokuk Municipal, IA, United States (KEOK) 40-28N 091-26W
Feb 20, 2019 - 07:15 PM EST / 2019.02.21 0015 UTC
Wind: from the WSW (250 degrees) at 16 MPH (14 KT):0
Visibility: 10 mile(s):0
Sky conditions: overcast
Temperature: 33 F (1 C)
Windchill: 23 F (-5 C):1
Dew Point: 28 F (-2 C)
Relative Humidity: 80%
Pressure (altimeter): 29.83 in. Hg (1010 hPa)
ob: KEOK 210015Z AUTO 25014KT 10SM OVC035 01/M02 A2983 RMK AO2
cycle: 0

Station Type Date Time Source
KEOK TAF UTC NOAA

Error!


Example: see airport list